• Join FlightAware (Why Join?)
  • Login
  • US Flag 
01:51PM EDT


 

Airport Tracker/Info


-or-


 

Live Flight TrackerFlight Track Log ✈ SWA2236 ✈ 09-Jul-2013 ✈ KLAS - KJAX

Flight Track Log - Related Links

Times and Time Zones

All times are in EDT time to prevent confusion due to time zone crossing. See the SWA2236 flight status page for this flight to view local times or setup timezone preferences in your user account.

Time Position Orientation Groundspeed Altitude Reporting Facility
EDT Latitude Longitude Course Direction KTS MPH feet Rate Location/Type
02:53PM 36.0767 -115.1014 92° East 171 197 3,300  Level Los Angeles Center
02:54PM 36.0742 -115.0306 92° East 239 275 4,700 1,800 Climbing Los Angeles Center
02:55PM 36.0739 -114.9506 90° East 257 296 6,700 2,220 Climbing Los Angeles Center
02:56PM 36.0608 -114.8511 99° East 300 345 9,000 1,980 Climbing Los Angeles Center
02:57PM 36.0419 -114.7131 100° East 322 371 11,300 1,920 Climbing Los Angeles Center
02:58PM 36.0231 -114.5858 100° East 369 425 13,500 2,220 Climbing Los Angeles Center
02:59PM 36.0039 -114.4528 100° East 389 448 15,900 2,400 Climbing Los Angeles Center
03:00PM 35.9847 -114.3178 100° East 398 458 18,500 2,340 Climbing Los Angeles Center
03:01PM 35.9642 -114.1808 100° East 403 464 20,800 1,800 Climbing Los Angeles Center
03:02PM 35.9439 -114.0392 100° East 413 475 22,300 1,740 Climbing Los Angeles Center
03:03PM 35.9169 -113.8614 101° East 433 498 24,400 1,740 Climbing Los Angeles Center
03:04PM 35.8936 -113.7117 101° East 442 509 25,900 1,440 Climbing Los Angeles Center
03:05PM 35.8697 -113.5606 101° East 454 522 27,400 1,440 Climbing Los Angeles Center
03:06PM 35.8444 -113.4036 101° East 463 533 28,900 1,320 Climbing Los Angeles Center
03:07PM 35.8192 -113.2461 101° East 468 539 30,200 1,380 Climbing Los Angeles Center
03:08PM 35.7939 -113.0889 101° East 469 540 31,800 1,440 Climbing Los Angeles Center
03:09PM 35.7631 -112.8997 101° East 468 539 33,200 1,200 Climbing Los Angeles Center
03:10PM 35.7367 -112.7397 101° East 473 544 34,400 1,020 Climbing Los Angeles Center
03:11PM 35.7156 -112.6119 101° East 475 547 35,400 1,080 Climbing Los Angeles Center
03:12PM 35.6839 -112.4250 102° East 468 539 36,700 720 Climbing Los Angeles Center
03:13PM 35.6567 -112.2686 102° East 469 540 37,000 120 Climbing Los Angeles Center
03:14PM 35.6303 -112.1131 102° East 466 536 37,000  Level Los Angeles Center
03:15PM 35.5978 -111.9281 102° East 463 533 37,000  Level Los Angeles Center
03:16PM 35.5911 -111.8033 94° East 464 534 37,000  Level Albuquerque Center
03:17PM 35.5839 -111.6153 93° East 461 531 37,000  Level Albuquerque Center
03:18PM 35.5783 -111.4603 92° East 459 528 37,000  Level Albuquerque Center
03:19PM 35.5717 -111.3111 93° East 461 531 37,000  Level Albuquerque Center
03:20PM 35.5667 -111.1372 92° East 458 527 37,000  Level Albuquerque Center
03:22PM 35.5586 -110.9869 94° East 460 529 37,000  Level Albuquerque Center
03:23PM 35.5531 -110.8156 92° East 454 522 37,000  Level Albuquerque Center
03:24PM 35.5467 -110.6697 93° East 450 518 37,000  Level Albuquerque Center
03:25PM 35.5392 -110.4986 93° East 449 517 37,000  Level Albuquerque Center
03:26PM 35.5328 -110.3511 93° East 451 519 37,000  Level Albuquerque Center
03:27PM 35.5256 -110.1783 93° East 454 522 37,000  Level Albuquerque Center
03:28PM 35.5189 -110.0278 93° East 458 527 37,000  Level Albuquerque Center
03:29PM 35.5108 -109.8786 94° East 460 529 37,000  Level Albuquerque Center
03:30PM 35.5028 -109.7042 93° East 460 529 37,000  Level Albuquerque Center
03:31PM 35.4958 -109.5547 93° East 459 528 37,000  Level Albuquerque Center
03:32PM 35.4861 -109.3792 94° East 463 533 37,000  Level Albuquerque Center
03:33PM 35.4781 -109.2294 94° East 462 532 37,000  Level Albuquerque Center
03:34PM 35.4686 -109.0528 94° East 465 535 37,000  Level Albuquerque Center
03:35PM 35.4603 -108.9014 94° East 467 537 37,000  Level Albuquerque Center
03:36PM 35.4517 -108.7261 93° East 465 535 37,000  Level Albuquerque Center
03:37PM 35.4419 -108.5758 94° East 465 535 37,000  Level Albuquerque Center
03:38PM 35.4322 -108.4011 94° East 463 533 37,000  Level Albuquerque Center
03:39PM 35.4233 -108.2517 94° East 462 532 37,000  Level Albuquerque Center
03:40PM 35.4125 -108.0772 94° East 461 531 37,000  Level Albuquerque Center
03:41PM 35.4033 -107.9272 94° East 462 532 37,000  Level Albuquerque Center
03:42PM 35.3933 -107.7792 95° East 459 528 37,000  Level Albuquerque Center
03:43PM 35.3814 -107.6056 95° East 458 527 37,000  Level Albuquerque Center
03:44PM 35.3692 -107.4464 95° East 457 526 37,000  Level Albuquerque Center
03:45PM 35.3586 -107.2900 95° East 459 528 37,000  Level Albuquerque Center
03:46PM 35.3478 -107.1358 95° East 458 527 37,000  Level Albuquerque Center
03:47PM 35.3350 -106.9647 95° East 452 520 37,000  Level Albuquerque Center
03:48PM 35.3239 -106.8169 95° East 454 522 37,000  Level Albuquerque Center
03:49PM 35.3128 -106.6697 95° East 454 522 37,000  Level Albuquerque Center
03:50PM 35.3014 -106.5089 95° East 460 529 37,000  Level Albuquerque Center
03:51PM 35.2894 -106.3525 95° East 461 531 37,000  Level Albuquerque Center
03:52PM 35.2742 -106.1822 96° East 454 522 37,000  Level Albuquerque Center
03:53PM 35.2608 -106.0272 96° East 455 524 37,000  Level Albuquerque Center
03:54PM 35.2606 -105.8719 90° East 454 522 37,000  Level Albuquerque Center
03:55PM 35.2619 -105.7153 89° East 456 525 37,000  Level Albuquerque Center
03:56PM 35.2569 -105.5639 92° East 444 511 37,000  Level Albuquerque Center
03:58PM 35.2353 -105.3853 98° East 448 516 37,000  Level Albuquerque Center
03:59PM 35.2161 -105.2325 99° East 450 518 37,000  Level Albuquerque Center
04:00PM 35.1986 -105.0803 98° East 449 517 37,000  Level Albuquerque Center
04:01PM 35.1814 -104.9294 98° East 447 514 37,000  Level Albuquerque Center
04:02PM 35.1631 -104.7775 98° East 447 514 37,000  Level Albuquerque Center
04:03PM 35.1450 -104.6261 98° East 448 516 37,000  Level Albuquerque Center
04:04PM 35.1297 -104.4614 96° East 446 513 37,000  Level Albuquerque Center
04:05PM 35.1333 -104.3114 88° East 441 507 37,000  Level Albuquerque Center
04:06PM 35.1244 -104.1603 94° East 445 512 37,000  Level Albuquerque Center
04:07PM 35.1042 -104.0108 99° East 447 514 37,000  Level Albuquerque Center
04:08PM 35.0814 -103.8497 100° East 453 521 37,000  Level Albuquerque Center
04:09PM 35.0622 -103.6986 99° East 450 518 37,000  Level Albuquerque Center
04:10PM 35.0425 -103.5481 99° East 447 514 37,000  Level Albuquerque Center
04:11PM 35.0228 -103.3975 99° East 447 514 37,000  Level Albuquerque Center
04:12PM 35.0036 -103.2467 99° East 447 514 37,000  Level Albuquerque Center
04:13PM 34.9797 -103.0725 99° East 443 510 37,000  Level Albuquerque Center
04:14PM 34.9589 -102.9242 100° East 441 507 37,000  Level Albuquerque Center
04:15PM 34.9392 -102.7753 99° East 441 507 37,000  Level Albuquerque Center
04:16PM 34.9214 -102.6439 99° East 440 506 37,000  Level Albuquerque Center
04:17PM 34.8956 -102.4686 100° East 441 507 37,000  Level Albuquerque Center
04:18PM 34.8736 -102.3211 100° East 444 511 37,000  Level Albuquerque Center
04:19PM 34.8542 -102.1750 99° East 442 509 37,000  Level Albuquerque Center
04:20PM 34.8336 -102.0289 100° East 442 509 37,000  Level Albuquerque Center
04:21PM 34.8122 -101.8831 100° East 442 509 37,000  Level Albuquerque Center
04:22PM 34.7919 -101.7383 100° East 440 506 37,000  Level Albuquerque Center
04:23PM 34.7656 -101.5636 100° East 442 509 37,000  Level Albuquerque Center
04:24PM 34.7453 -101.4178 100° East 442 509 37,000  Level Albuquerque Center
04:25PM 34.7242 -101.2728 100° East 440 506 37,000  Level Albuquerque Center
04:26PM 34.7014 -101.1297 101° East 438 504 37,000  Level Albuquerque Center
04:27PM 34.6803 -100.9864 100° East 435 501 37,000  Level Albuquerque Center
04:28PM 34.6578 -100.8425 101° East 435 501 37,000  Level Albuquerque Center
04:29PM 34.6308 -100.6703 101° East 435 501 37,000  Level Albuquerque Center
04:30PM 34.6097 -100.5258 100° East 436 502 37,000  Level Albuquerque Center
04:31PM 34.5869 -100.3811 101° East 438 504 37,000  Level Albuquerque Center
04:32PM 34.5639 -100.2367 101° East 438 504 37,000  Level Albuquerque Center
04:34PM 34.5408 -100.0917 101° East 439 505 37,000  Level Albuquerque Center
04:35PM 34.5153 -99.9211 100° East 430 495 37,000  Level Fort Worth Center
04:36PM 34.4953 -99.7794 100° East 430 495 37,000  Level Fort Worth Center
04:37PM 34.4683 -99.6528 104° East 430 495 37,000  Level Fort Worth Center
04:38PM 34.4436 -99.5086 102° East 430 495 37,000  Level Fort Worth Center
04:39PM 34.4211 -99.3619 100° East 430 495 37,000  Level Fort Worth Center
04:40PM 34.3961 -99.2231 102° East 430 495 37,000  Level Fort Worth Center
04:41PM 34.3708 -99.0792 102° East 430 495 37,000  Level Fort Worth Center
04:42PM 34.3478 -98.9353 101° East 430 495 37,000  Level Fort Worth Center
04:43PM 34.3222 -98.7889 102° East 430 495 37,000  Level Fort Worth Center
04:44PM 34.2967 -98.6453 102° East 430 495 37,000  Level Fort Worth Center
04:45PM 34.2728 -98.5042 102° East 430 495 37,000  Level Fort Worth Center
04:46PM 34.2469 -98.3633 102° East 430 495 37,000  Level Fort Worth Center
04:47PM 34.2208 -98.2197 102° East 430 495 37,000  Level Fort Worth Center
04:48PM 34.1944 -98.0789 103° East 430 495 37,000  Level Fort Worth Center
04:49PM 34.1661 -97.9206 102° East 430 495 37,000  Level Fort Worth Center
04:50PM 34.1394 -97.7797 103° East 430 495 37,000  Level Fort Worth Center
04:51PM 34.1125 -97.6367 103° East 430 495 37,000  Level Fort Worth Center
04:52PM 34.0981 -97.5064 98° East 430 495 37,000  Level Fort Worth Center
04:53PM 34.0711 -97.3683 103° East 430 495 37,000  Level Fort Worth Center
04:54PM 34.0481 -97.2281 101° East 430 495 37,000  Level Fort Worth Center
04:55PM 34.0206 -97.0853 103° East 430 495 37,000  Level Fort Worth Center
04:56PM 33.9950 -96.9450 102° East 430 495 37,000  Level Fort Worth Center
04:57PM 33.9672 -96.8025 103° East 430 495 37,000  Level Fort Worth Center
04:58PM 33.9372 -96.6500 103° East 430 495 37,000  Level Fort Worth Center
04:59PM 33.9092 -96.5075 103° East 425 489 37,000  Level Fort Worth Center
05:00PM 33.8831 -96.3678 103° East 430 495 37,000  Level Fort Worth Center
05:01PM 33.8547 -96.2256 103° East 430 495 37,000  Level Fort Worth Center
05:02PM 33.8261 -96.0833 104° East 430 495 37,000  Level Fort Worth Center
05:03PM 33.7994 -95.9436 103° East 430 495 37,000  Level Fort Worth Center
05:04PM 33.7708 -95.8019 104° East 430 495 37,000  Level Fort Worth Center
05:05PM 33.7417 -95.6600 104° East 436 502 37,000  Level Fort Worth Center
05:06PM 33.7147 -95.5206 103° East 430 495 37,000  Level Fort Worth Center
05:07PM 33.6831 -95.3742 105° East 435 501 37,000  Level Fort Worth Center
05:08PM 33.6536 -95.2300 104° East 440 506 37,000  Level Fort Worth Center
05:09PM 33.6239 -95.0836 104° East 445 512 37,000  Level Fort Worth Center
05:10PM 33.5961 -94.9397 103° East 445 512 37,000  Level Fort Worth Center
05:11PM 33.5661 -94.7983 104° East 450 518 37,000  Level Fort Worth Center
05:12PM 33.5358 -94.6522 104° East 445 512 37,000  Level Fort Worth Center
05:13PM 33.5053 -94.5089 104° East 445 512 37,000  Level Fort Worth Center
05:14PM 33.4750 -94.3678 104° East 445 512 37,000  Level Fort Worth Center
05:15PM 33.4464 -94.2244 103° East 445 512 37,000  Level Fort Worth Center
05:16PM 33.4175 -94.0836 104° East 440 506 37,000  Level Fort Worth Center
05:17PM 33.3869 -93.9531 106° East 440 506 37,000  Level Fort Worth Center
05:18PM 33.3508 -93.7853 104° East 460 529 37,000  Level Fort Worth Center
05:19PM 33.3242 -93.6522 103° East 460 529 37,000  Level Fort Worth Center
05:20PM 33.2925 -93.5094 105° East 449 517 37,000  Level Fort Worth Center
05:21PM 33.2631 -93.3692 104° East 444 511 37,000  Level Fort Worth Center
05:22PM 33.2314 -93.2264 105° East 444 511 37,000  Level Fort Worth Center
05:23PM 33.1989 -93.0742 104° East 439 505 37,000  Level Fort Worth Center
05:24PM 33.1669 -92.9317 105° East 439 505 37,000  Level Fort Worth Center
05:25PM 33.1325 -92.7897 106° East 439 505 37,000  Level Fort Worth Center
05:26PM 33.1000 -92.6475 105° East 439 505 37,000  Level Fort Worth Center
05:27PM 33.0694 -92.5031 104° East 439 505 37,000  Level Fort Worth Center
05:28PM 33.0367 -92.3636 106° East 439 505 37,000  Level Fort Worth Center
05:29PM 33.0058 -92.2217 104° East 439 505 37,000  Level Fort Worth Center
05:30PM 32.9453 -91.9911 107° East 417 480 37,000  Level Memphis Center
05:31PM 32.9114 -91.8494 106° East 429 494 37,000  Level Memphis Center
05:32PM 32.8775 -91.7078 106° East 434 499 37,000  Level Memphis Center
05:33PM 32.8417 -91.5517 105° East 440 506 37,000  Level Memphis Center
05:34PM 32.8094 -91.4128 105° East 440 506 37,000  Level Memphis Center
05:35PM 32.7772 -91.2739 105° East 440 506 37,000  Level Memphis Center
05:36PM 32.7428 -91.1303 106° East 440 506 37,000  Level Memphis Center
05:37PM 32.7081 -90.9917 107° East 440 506 37,000  Level Memphis Center
05:38PM 32.6731 -90.8483 106° East 440 506 37,000  Level Memphis Center
05:39PM 32.6400 -90.7100 106° East 440 506 37,000  Level Memphis Center
05:40PM 32.6050 -90.5719 107° East 440 506 37,000  Level Memphis Center
05:41PM 32.5717 -90.4336 106° East 440 506 37,000  Level Memphis Center
05:42PM 32.5361 -90.2933 107° East 440 506 37,000  Level Memphis Center
05:43PM 32.5047 -90.1553 105° East 435 501 37,000  Level Memphis Center
05:44PM 32.4814 -90.0272 102° East 435 501 37,000  Level Memphis Center
05:45PM 32.4394 -89.8944 110° East 435 501 37,000  Level Memphis Center
05:46PM 32.3969 -89.7594 110° East 435 501 37,000  Level Memphis Center
05:47PM 32.3544 -89.6244 110° East 435 501 37,000  Level Memphis Center
05:48PM 32.3119 -89.4897 110° East 435 501 37,000 300 Level Memphis Center
05:49PM 32.2711 -89.3572 110° East 430 495 37,700 900 Climbing Memphis Center
05:50PM 32.2261 -89.2203 111° Southeast 430 495 38,900 600 Climbing Memphis Center
05:51PM 32.1853 -89.0883 110° East 430 495 39,000  Climbing Memphis Center
05:52PM 32.1422 -88.9564 111° Southeast 430 495 39,000  Level Memphis Center
05:54PM 32.0556 -88.6922 111° Southeast 410 472 39,000  Level Atlanta Center
05:55PM 32.0122 -88.5628 112° Southeast 416 479 39,000  Level Atlanta Center
05:56PM 31.9692 -88.4283 111° Southeast 428 493 39,000  Level Atlanta Center
05:57PM 31.9236 -88.2989 112° Southeast 428 493 39,000  Level Atlanta Center
05:58PM 31.8481 -88.1853 128° Southeast 428 493 39,000  Level Atlanta Center
05:59PM 31.7747 -88.0719 127° Southeast 433 498 39,000  Level Atlanta Center
06:00PM 31.7011 -87.9564 127° Southeast 439 505 39,000  Level Atlanta Center
06:01PM 31.6275 -87.8433 127° Southeast 439 505 39,000  Level Atlanta Center
06:03PM 31.5006 -87.6606 129° Southeast 431 496 39,000  Level Jacksonville Center
06:04PM 31.4233 -87.5519 130° Southeast 436 502 39,000  Level Jacksonville Center
06:05PM 31.3608 -87.4322 121° Southeast 436 502 39,000  Level Jacksonville Center
06:06PM 31.3006 -87.3078 120° Southeast 436 502 39,000  Level Jacksonville Center
06:07PM 31.2547 -87.1817 113° Southeast 430 495 39,000  Level Jacksonville Center
06:08PM 31.2258 -87.0492 104° East 425 489 39,000  Level Jacksonville Center
06:09PM 31.1939 -86.9361 108° East 411 473 39,000 -240 Level Jacksonville Center
06:10PM 31.1586 -86.7961 106° East 419 482 38,600 -660 Descending Jacksonville Center
06:11PM 31.1272 -86.6639 105° East 426 490 37,700 -960 Descending Jacksonville Center
06:12PM 31.0956 -86.5267 105° East 431 496 36,700 -960 Descending Jacksonville Center
06:13PM 31.0597 -86.3919 107° East 431 496 35,800 -1,020 Descending Jacksonville Center
06:14PM 31.0242 -86.2378 105° East 441 507 34,700 -1,080 Descending Jacksonville Center
06:15PM 30.9925 -86.0986 105° East 441 507 33,700 -900 Descending Jacksonville Center
06:16PM 30.9603 -85.9619 105° East 441 507 33,000 -360 Descending Jacksonville Center
06:17PM 30.9239 -85.8228 107° East 441 507 33,000  Level Jacksonville Center
06:18PM 30.8894 -85.6861 106° East 441 507 33,000  Level Jacksonville Center
06:19PM 30.8547 -85.5447 106° East 441 507 33,000  Level Jacksonville Center
06:20PM 30.8200 -85.4036 106° East 446 513 33,000  Level Jacksonville Center
06:21PM 30.7853 -85.2622 106° East 446 513 33,000  Level Jacksonville Center
06:22PM 30.7481 -85.1236 107° East 446 513 33,000  Level Jacksonville Center
06:23PM 30.7128 -84.9875 107° East 446 513 33,000  Level Jacksonville Center
06:24PM 30.6794 -84.8514 106° East 441 507 33,000  Level Jacksonville Center
06:25PM 30.6439 -84.7108 106° East 441 507 33,000  Level Jacksonville Center
06:26PM 30.6272 -84.5656 98° East 446 513 33,000 -360 Level Jacksonville Center
06:27PM 30.6186 -84.4253 94° East 441 507 32,300 -900 Descending Jacksonville Center
06:28PM 30.6117 -84.2853 93° East 441 507 31,300 -1,020 Descending Jacksonville Center
06:29PM 30.6047 -84.1475 93° East 441 507 30,300 -1,020 Descending Jacksonville Center
06:30PM 30.5958 -84.0028 94° East 441 507 29,300 -1,020 Descending Jacksonville Center
06:31PM 30.5864 -83.8628 94° East 441 507 28,300 -1,020 Descending Jacksonville Center
06:32PM 30.5811 -83.7250 93° East 435 501 27,300 -1,020 Descending Jacksonville Center
06:33PM 30.5714 -83.5922 95° East 423 487 26,300 -1,020 Descending Jacksonville Center
06:34PM 30.5658 -83.4739 93° East 416 479 25,300 -960 Descending Jacksonville Center
06:35PM 30.5581 -83.3461 94° East 406 467 24,400 -660 Descending Jacksonville Center
06:36PM 30.5500 -83.2158 94° East 400 460 24,000 -480 Descending Jacksonville Center
06:37PM 30.5419 -83.0903 94° East 400 460 23,500 -840 Descending Jacksonville Center
06:38PM 30.5339 -82.9672 94° East 394 453 22,400 -1,320 Descending Jacksonville Center
06:39PM 30.5253 -82.8322 94° East 387 445 20,900 -1,200 Descending Jacksonville Center
06:40PM 30.5147 -82.7142 96° East 382 440 20,000 -1,440 Descending Jacksonville Center
06:41PM 30.5083 -82.6153 94° East 368 423 18,100 -2,820 Descending Jacksonville Center
06:42PM 30.5125 -82.5333 87° East 375 432 15,600 -3,000 Descending Jacksonville Center
06:43PM 30.5578 -82.3908 70° East 352 405 12,100 -2,040 Descending Jacksonville Center
06:44PM 30.5889 -82.2964 69° East 333 383 10,700 -1,800 Descending Jacksonville Center
06:45PM 30.6236 -82.1900 69° East 279 321 8,300 -1,920 Descending Jacksonville Center
06:46PM 30.6275 -82.1225 86° East 281 323 6,900 -1,560 Descending Jacksonville Center
06:47PM 30.6289 -82.0331 89° East 276 318 5,400 -1,260 Descending Jacksonville Center
06:48PM 30.5950 -81.9514 116° Southeast 267 307 4,400 -960 Descending Jacksonville Center
06:49PM 30.5672 -81.8817 115° Southeast 260 299 3,500 -1,260 Descending Jacksonville Center
06:50PM 30.5500 -81.8192 108° East 226 260 1,900 -1,140 Descending Jacksonville Center
06:51PM 30.5350 -81.7686 109° East 189 217 1,300 -660 Descending Jacksonville Center
06:52PM 30.5056 -81.7233 127° Southeast 135 155 500 -720 Descending Jacksonville Center
06:54PM 30.4941 -81.6879 115° Southeast  Level Estimated
07:01PM 30.4941 -81.6879 311° West  Level Estimated